Time;durP1;ratioP1;P1;durP2;ratioP2;P2;SDS_P1;SDS_P2;PMS_P1;PMS_P2;Temp;Humidity;BMP_temperature;BMP_pressure;BME280_temperature;BME280_humidity;BME280_pressure;Samples;Min_cycle;Max_cycle;Signal;HPM_P1;HPM_P2
2023/06/13 00:00:11;;;;;;;;;24.00;22.67;;;;;23.25;92.38;100334.91;6223847;22;46939;-84
2023/06/13 00:02:38;;;;;;;;;23.67;23.00;;;;;23.22;92.14;100329.59;6225393;22;45397;-84
2023/06/13 00:05:06;;;;;;;;;27.00;24.67;;;;;23.25;91.95;100329.50;6225436;22;45329;-85
2023/06/13 00:07:32;;;;;;;;;30.33;27.67;;;;;23.19;92.30;100321.63;6198336;22;45489;-85
2023/06/13 00:09:58;;;;;;;;;27.67;27.00;;;;;23.16;91.82;100325.34;6222663;22;47018;-85
2023/06/13 00:12:25;;;;;;;;;26.00;26.00;;;;;23.11;92.06;100323.81;6224639;22;45243;-85
2023/06/13 00:14:51;;;;;;;;;24.33;24.00;;;;;23.06;92.31;100318.56;6223100;22;45371;-85
2023/06/13 00:17:17;;;;;;;;;28.33;27.67;;;;;23.05;92.18;100316.81;6222210;22;45598;-85
2023/06/13 00:19:43;;;;;;;;;25.00;25.00;;;;;22.96;91.88;100322.59;6196750;22;46209;-85
2023/06/13 00:22:11;;;;;;;;;23.33;23.33;;;;;22.95;92.55;100324.44;6223344;22;45447;-86
2023/06/13 00:24:38;;;;;;;;;25.67;23.00;;;;;22.94;92.47;100313.66;6223179;22;45327;-85
2023/06/13 00:27:04;;;;;;;;;25.67;25.67;;;;;22.84;92.55;100315.00;6223841;22;45494;-85
2023/06/13 00:29:29;;;;;;;;;24.00;23.67;;;;;22.84;93.01;100326.72;6221927;22;46542;-85
2023/06/13 00:31:54;;;;;;;;;25.67;24.67;;;;;22.81;92.79;100318.75;6222782;22;45700;-85
2023/06/13 00:34:20;;;;;;;;;27.67;27.00;;;;;22.77;93.95;100322.53;6196417;22;45357;-86
2023/06/13 00:36:45;;;;;;;;;31.33;29.33;;;;;22.68;92.76;100299.41;6234164;22;45586;-85
2023/06/13 00:39:11;;;;;;;;;31.33;29.00;;;;;22.69;93.62;100312.00;6252968;22;48280;-85
2023/06/13 00:41:37;;;;;;;;;26.67;25.67;;;;;22.66;93.49;100311.25;6228752;22;45304;-85
2023/06/13 00:44:58;;;;;;;;;30.00;30.00;;;;;22.76;93.69;100315.34;6255974;22;45331;-84
2023/06/13 00:47:26;;;;;;;;;29.33;28.00;;;;;22.65;93.33;100309.50;6254400;22;45324;-85
2023/06/13 00:49:53;;;;;;;;;27.67;27.67;;;;;22.62;93.21;100301.50;6227075;22;47124;-85
2023/06/13 00:52:22;;;;;;;;;26.33;26.00;;;;;22.65;93.12;100306.78;6252198;22;45712;-85
2023/06/13 00:54:47;;;;;;;;;24.67;23.67;;;;;22.43;93.14;100288.72;6226028;22;45359;-85
2023/06/13 00:57:13;;;;;;;;;28.00;27.00;;;;;22.59;93.68;100315.19;6251234;22;45354;-85
2023/06/13 00:59:40;;;;;;;;;29.00;26.00;;;;;22.42;93.14;100284.28;6253211;22;47278;-85
2023/06/13 01:02:05;;;;;;;;;32.00;30.00;;;;;22.56;93.64;100303.53;6227116;22;45447;-85
2023/06/13 01:04:34;;;;;;;;;28.00;26.33;;;;;22.53;93.24;100303.66;6227290;22;45372;-84
2023/06/13 01:07:00;;;;;;;;;28.33;27.67;;;;;22.48;92.67;100297.56;6253378;22;45647;-84
2023/06/13 01:09:25;;;;;;;;;27.00;26.67;;;;;22.39;93.03;100297.06;6225068;22;47041;-85
2023/06/13 01:12:11;;;;;;;;;31.67;29.67;;;;;22.44;93.13;100298.63;6227529;22;45354;-85
2023/06/13 01:15:02;;;;;;;;;32.33;30.33;;;;;22.49;92.76;100299.31;6225732;22;45453;-84
2023/06/13 01:17:43;;;;;;;;;27.50;27.00;;;;;22.47;92.46;100301.19;6254777;22;45255;-85
2023/06/13 01:20:13;;;;;;;;;25.67;25.33;;;;;22.41;92.33;100296.03;6252238;22;46836;-85
2023/06/13 01:23:04;;;;;;;;;29.00;29.00;;;;;22.45;92.31;100292.25;6254396;22;45381;-85
2023/06/13 01:25:37;;;;;;;;;30.67;28.00;;;;;22.43;92.53;100294.16;6251287;22;65046;-85
2023/06/13 01:28:06;;;;;;;;;33.67;32.00;;;;;22.41;92.33;100287.91;6250785;22;45498;-85
2023/06/13 01:30:34;;;;;;;;;33.67;29.67;;;;;22.33;91.85;100284.66;6224477;22;45358;-85
2023/06/13 01:33:00;;;;;;;;;33.00;28.33;;;;;22.33;91.86;100284.66;6225632;22;45279;-85
2023/06/13 01:35:27;;;;;;;;;30.67;30.00;;;;;22.29;91.91;100278.47;6254593;22;45325;-85
2023/06/13 01:37:52;;;;;;;;;33.00;28.33;;;;;22.29;91.75;100283.88;6201419;22;45265;-85
2023/06/13 01:40:20;;;;;;;;;31.67;28.33;;;;;22.36;91.69;100289.94;6222545;22;46929;-84
2023/06/13 01:42:45;;;;;;;;;30.00;28.67;;;;;22.30;91.52;100290.19;6221077;22;45501;-85
2023/06/13 01:45:11;;;;;;;;;31.33;28.67;;;;;22.30;91.89;100295.59;6222152;22;45648;-85
2023/06/13 01:47:58;;;;;;;;;34.33;32.00;;;;;22.39;91.50;100294.34;6223146;22;45463;-84
2023/06/13 01:50:42;;;;;;;;;30.00;29.00;;;;;22.25;91.90;100284.97;6224960;22;45433;-85
2023/06/13 01:53:18;;;;;;;;;28.33;27.33;;;;;22.17;92.21;100285.25;6197050;22;45836;-85
2023/06/13 01:55:51;;;;;;;;;33.67;26.67;;;;;22.16;91.82;100286.19;6222241;22;44797;-84
2023/06/13 01:58:23;;;;;;;;;37.00;31.00;;;;;22.14;92.12;100298.06;6196205;22;45373;-84
2023/06/13 02:00:51;;;;;;;;;30.67;27.33;;;;;22.10;92.24;100291.88;6196192;22;47931;-84
2023/06/13 02:03:18;;;;;;;;;33.00;30.67;;;;;22.04;91.90;100289.41;6220395;22;45715;-85
2023/06/13 02:05:43;;;;;;;;;29.00;28.33;;;;;22.01;92.89;100288.66;6223918;22;45291;-85
2023/06/13 02:08:08;;;;;;;;;35.33;33.00;;;;;21.99;92.27;100288.69;6222692;22;45347;-85
2023/06/13 02:10:34;;;;;;;;;30.67;29.00;;;;;22.00;92.54;100281.47;6225896;22;45330;-86
2023/06/13 02:13:03;;;;;;;;;33.00;30.67;;;;;21.94;92.32;100275.38;6224006;22;45345;-85
2023/06/13 02:15:28;;;;;;;;;28.67;28.67;;;;;21.90;92.41;100284.56;6195998;22;45300;-85
2023/06/13 02:17:55;;;;;;;;;38.00;31.67;;;;;21.87;92.43;100275.66;6196387;22;45343;-85
2023/06/13 02:20:20;;;;;;;;;32.00;30.67;;;;;21.77;92.49;100262.53;6222142;22;45303;-84
2023/06/13 02:22:46;;;;;;;;;27.00;25.67;;;;;21.87;92.75;100267.53;6221672;22;45333;-84
2023/06/13 02:25:13;;;;;;;;;31.67;31.00;;;;;21.84;92.84;100281.22;6222389;22;44747;-85
2023/06/13 02:27:39;;;;;;;;;31.33;30.00;;;;;21.79;92.62;100275.97;6222169;22;45358;-84
2023/06/13 02:30:07;;;;;;;;;32.33;30.33;;;;;21.80;92.61;100268.75;6221582;22;45360;-85
2023/06/13 02:32:33;;;;;;;;;31.33;29.67;;;;;21.89;92.58;100277.34;6220976;22;45380;-84
2023/06/13 02:34:58;;;;;;;;;32.00;29.67;;;;;21.81;92.05;100267.78;6222031;22;45293;-85
2023/06/13 02:37:24;;;;;;;;;28.00;27.50;;;;;21.81;92.54;100271.38;6196485;22;45547;-85
2023/06/13 02:39:52;;;;;;;;;27.67;27.67;;;;;21.83;92.84;100263.19;6222206;22;47040;-84
2023/06/13 02:42:18;;;;;;;;;26.33;26.00;;;;;21.74;92.61;100272.56;6221594;22;45241;-84
2023/06/13 02:44:44;;;;;;;;;34.33;31.33;;;;;21.60;93.38;100262.28;6195047;22;45327;-84
2023/06/13 02:47:10;;;;;;;;;33.33;31.67;;;;;21.56;93.40;100255.25;6222311;22;45385;-84
2023/06/13 02:49:35;;;;;;;;;33.33;28.33;;;;;21.62;93.54;100265.81;6221220;22;48130;-85
2023/06/13 02:52:01;;;;;;;;;27.33;27.33;;;;;21.54;93.69;100257.13;6197312;22;44683;-85
2023/06/13 02:54:26;;;;;;;;;32.33;29.67;;;;;21.56;93.79;100261.53;6195816;22;45745;-86
2023/06/13 02:56:52;;;;;;;;;29.33;28.33;;;;;21.53;93.49;100252.63;6223231;22;45446;-85
2023/06/13 02:59:19;;;;;;;;;31.67;31.33;;;;;21.50;93.47;100260.88;6219381;22;47359;-85
2023/06/13 03:01:45;;;;;;;;;30.00;30.00;;;;;21.45;93.99;100266.47;6221113;22;45576;-85
2023/06/13 03:04:11;;;;;;;;;34.00;29.33;;;;;21.44;94.05;100270.13;6194646;22;45352;-84
2023/06/13 03:10:06;;;;;;;;;33.67;31.33;;;;;21.48;94.24;100273.59;6222366;22;45693;-85
2023/06/13 03:12:31;;;;;;;;;32.33;30.33;;;;;21.46;94.29;100270.06;6222097;22;45675;-85
2023/06/13 03:14:57;;;;;;;;;31.67;30.33;;;;;21.42;94.08;100263.84;6222237;22;45375;-84
2023/06/13 03:17:22;;;;;;;;;34.67;31.00;;;;;21.36;93.94;100259.56;6220181;22;45309;-85
2023/06/13 03:19:50;;;;;;;;;32.33;31.00;;;;;21.38;94.19;100267.63;6194086;22;46538;-85
2023/06/13 03:22:16;;;;;;;;;32.00;31.00;;;;;21.32;94.61;100263.31;6222200;22;45283;-84
2023/06/13 03:24:42;;;;;;;;;37.67;33.67;;;;;21.33;94.53;100269.59;6196455;22;45642;-84
2023/06/13 03:27:14;;;;;;;;;25.67;25.67;;;;;21.37;94.53;100266.75;6223457;22;45347;-84
2023/06/13 03:29:41;;;;;;;;;33.00;32.00;;;;;21.26;95.18;100268.09;6196098;22;48564;-86
2023/06/13 03:32:10;;;;;;;;;39.67;33.67;;;;;21.32;95.04;100265.13;6221903;22;45658;-85
2023/06/13 03:34:38;;;;;;;;;35.67;31.67;;;;;21.24;94.79;100257.31;6194885;22;45545;-84
2023/06/13 03:37:08;;;;;;;;;29.33;27.33;;;;;21.21;95.26;100245.72;6220547;22;45561;-84
2023/06/13 03:39:34;;;;;;;;;33.00;31.00;;;;;21.24;95.51;100264.56;6221321;22;45296;-84
2023/06/13 03:42:01;;;;;;;;;30.33;28.67;;;;;21.23;95.10;100269.09;6220605;22;45539;-84
2023/06/13 03:47:48;;;;;;;;;35.00;32.67;;;;;21.18;95.59;100273.78;6222968;22;45356;-85
2023/06/13 03:50:13;;;;;;;;;30.67;27.67;;;;;21.14;95.27;100259.47;6219294;22;46638;-85
2023/06/13 03:52:40;;;;;;;;;34.67;31.00;;;;;21.15;95.22;100271.19;6221427;22;45452;-85
2023/06/13 03:55:06;;;;;;;;;31.33;30.33;;;;;21.06;95.41;100261.59;6221969;22;44754;-85
2023/06/13 03:57:31;;;;;;;;;38.33;32.00;;;;;21.10;95.23;100273.19;6196639;22;45917;-85
2023/06/13 03:59:57;;;;;;;;;33.00;31.00;;;;;21.12;95.06;100276.69;6194555;22;46964;-85
2023/06/13 04:02:22;;;;;;;;;31.00;30.33;;;;;21.12;95.25;100282.13;6222225;22;45351;-85
2023/06/13 04:04:48;;;;;;;;;33.33;32.00;;;;;21.10;95.45;100278.59;6224007;22;45579;-85
2023/06/13 04:07:16;;;;;;;;;32.33;30.00;;;;;21.09;95.65;100276.84;6197198;22;45409;-84
2023/06/13 04:09:42;;;;;;;;;29.33;29.00;;;;;21.05;95.17;100264.38;6196989;22;47275;-84
2023/06/13 04:12:11;;;;;;;;;30.33;30.00;;;;;21.12;95.38;100279.41;6223325;22;45451;-84
2023/06/13 04:14:37;;;;;;;;;34.67;32.67;;;;;21.02;95.11;100275.28;6198008;22;45531;-85
2023/06/13 04:17:03;;;;;;;;;27.67;26.33;;;;;21.07;95.64;100276.00;6197493;22;45488;-85
2023/06/13 04:19:31;;;;;;;;;29.33;28.33;;;;;21.18;94.69;100288.16;6221279;22;47324;-85
2023/06/13 04:21:59;;;;;;;;;34.67;31.00;;;;;21.05;94.60;100284.16;6221036;22;45392;-85
2023/06/13 04:24:25;;;;;;;;;34.00;31.67;;;;;21.03;94.98;100277.06;6219943;22;45906;-85
2023/06/13 04:26:50;;;;;;;;;33.67;30.33;;;;;21.04;94.64;100276.09;6221967;22;45465;-85
2023/06/13 04:29:17;;;;;;;;;35.67;31.33;;;;;21.07;94.79;100279.59;6195090;22;46857;-85
2023/06/13 04:31:46;;;;;;;;;23.00;23.00;;;;;21.24;94.82;100287.06;6195908;22;45413;-85
2023/06/13 04:34:13;;;;;;;;;30.67;29.00;;;;;21.18;94.14;100293.56;6225523;22;45481;-85
2023/06/13 04:36:41;;;;;;;;;32.67;31.00;;;;;21.18;93.63;100293.56;6226251;22;45566;-85
2023/06/13 04:39:15;;;;;;;;;35.67;32.33;;;;;21.12;93.75;100288.41;6225127;22;47297;-86
2023/06/13 04:45:03;;;;;;;;;30.67;29.67;;;;;21.31;93.80;100296.72;6254079;22;45307;-85
2023/06/13 04:47:33;;;;;;;;;32.00;30.67;;;;;21.41;93.47;100286.44;6227294;22;45280;-85
2023/06/13 04:50:02;;;;;;;;;33.00;30.67;;;;;21.42;92.41;100280.06;6225965;22;46758;-85
2023/06/13 04:52:32;;;;;;;;;33.00;30.67;;;;;21.52;92.54;100286.06;6226904;22;45209;-85
2023/06/13 04:55:01;;;;;;;;;32.67;28.67;;;;;21.57;92.29;100292.16;6227029;22;45352;-85
2023/06/13 04:57:27;;;;;;;;;30.33;30.00;;;;;21.71;91.42;100291.63;6253771;22;45292;-85
2023/06/13 04:59:52;;;;;;;;;33.67;29.33;;;;;21.69;90.60;100283.59;6225072;22;47135;-85
2023/06/13 05:02:18;;;;;;;;;30.67;28.33;;;;;21.82;90.95;100293.94;6254455;22;45441;-85
2023/06/13 05:04:47;;;;;;;;;36.33;31.33;;;;;21.98;90.46;100293.25;6226763;22;45457;-85
2023/06/13 05:07:14;;;;;;;;;31.00;30.33;;;;;22.04;89.84;100297.53;6252483;22;45419;-85
2023/06/13 05:09:43;;;;;;;;;27.00;26.00;;;;;22.17;89.19;100297.91;6253396;22;45366;-84
2023/06/13 05:12:10;;;;;;;;;34.00;29.67;;;;;22.27;88.08;100296.63;6254083;22;44834;-85
2023/06/13 05:14:36;;;;;;;;;33.67;29.67;;;;;22.31;87.14;100300.09;6226011;22;45432;-85
2023/06/13 05:17:05;;;;;;;;;30.00;27.33;;;;;22.36;87.09;100300.78;6254392;22;45354;-85
2023/06/13 05:19:31;;;;;;;;;34.00;30.33;;;;;22.51;86.36;100299.25;6251572;22;46798;-84
2023/06/13 05:21:56;;;;;;;;;30.67;28.33;;;;;22.60;86.24;100288.00;6227161;22;45692;-85
2023/06/13 05:24:23;;;;;;;;;36.00;31.00;;;;;22.69;85.63;100294.88;6253533;22;45296;-84
2023/06/13 05:26:51;;;;;;;;;36.67;34.00;;;;;22.84;84.71;100286.06;6254847;22;45452;-86
2023/06/13 05:29:17;;;;;;;;;32.33;30.67;;;;;22.91;84.24;100295.69;6256884;22;46300;-84
2023/06/13 05:31:42;;;;;;;;;28.67;27.67;;;;;22.91;82.71;100298.41;6256774;22;45443;-84
2023/06/13 05:34:09;;;;;;;;;29.67;28.00;;;;;22.84;82.21;100277.91;6253388;22;44838;-84
2023/06/13 05:36:34;;;;;;;;;28.67;27.67;;;;;22.78;83.12;100286.31;6253309;22;45332;-85
2023/06/13 05:39:01;;;;;;;;;34.33;32.00;;;;;22.98;81.97;100293.59;6254458;22;45305;-85
2023/06/13 05:41:26;;;;;;;;;28.67;28.67;;;;;22.97;81.84;100284.56;6252299;22;45299;-85
2023/06/13 05:43:52;;;;;;;;;30.67;29.33;;;;;23.00;81.80;100285.38;6253324;22;45333;-85
2023/06/13 05:46:18;;;;;;;;;31.67;30.00;;;;;23.07;81.35;100286.91;6255506;22;45566;-85
2023/06/13 05:48:43;;;;;;;;;25.67;25.00;;;;;23.01;80.56;100288.03;6227551;22;47176;-85
2023/06/13 05:51:09;;;;;;;;;34.33;30.67;;;;;23.06;81.01;100286.00;6255385;22;45339;-84
2023/06/13 05:53:35;;;;;;;;;33.67;31.00;;;;;23.17;80.92;100290.97;6229100;22;45307;-85
2023/06/13 05:56:00;;;;;;;;;29.00;26.67;;;;;23.22;79.84;100302.47;6253017;22;45457;-85
2023/06/13 05:58:27;;;;;;;;;29.33;29.33;;;;;23.28;80.10;100283.22;6253299;22;48814;-85
2023/06/13 06:00:53;;;;;;;;;27.33;27.33;;;;;23.46;79.42;100297.75;6255738;22;45375;-85
2023/06/13 06:03:19;;;;;;;;;23.33;21.00;;;;;23.57;79.00;100286.38;6254922;22;45557;-85
2023/06/13 06:05:45;;;;;;;;;29.67;27.33;;;;;23.71;78.41;100294.78;6256097;22;45354;-85
2023/06/13 06:08:11;;;;;;;;;31.00;27.67;;;;;23.78;77.51;100291.81;6256904;22;45132;-85
2023/06/13 06:10:37;;;;;;;;;29.67;28.67;;;;;23.96;77.59;100299.06;6254961;22;45177;-85
2023/06/13 06:13:03;;;;;;;;;34.00;30.00;;;;;24.05;76.36;100298.59;6255861;22;45416;-85
2023/06/13 06:15:39;;;;;;;;;;;;;;;;;;;;;
2023/06/13 06:18:05;;;;;;;;;39.33;33.00;;;;;24.26;75.75;100276.75;6254071;22;74762;-86
2023/06/13 06:20:33;;;;;;;;;35.67;31.33;;;;;24.46;75.57;100279.38;6255677;22;45422;-86
2023/06/13 06:22:58;;;;;;;;;30.67;27.33;;;;;24.52;74.31;100275.47;6256095;22;44689;-86
2023/06/13 06:25:24;;;;;;;;;26.33;26.33;;;;;24.63;73.55;100274.94;6253463;22;45669;-86
2023/06/13 06:27:50;;;;;;;;;34.33;32.33;;;;;24.81;73.00;100275.81;6255113;22;45440;-86
2023/06/13 06:30:15;;;;;;;;;30.67;30.00;;;;;24.72;72.40;100275.34;6255196;22;45425;-86
2023/06/13 06:32:42;;;;;;;;;30.67;26.67;;;;;24.73;72.83;100268.06;6257998;22;45157;-85
2023/06/13 06:35:10;;;;;;;;;33.67;29.67;;;;;24.82;72.42;100273.00;6231675;22;45578;-85
2023/06/13 06:37:36;;;;;;;;;30.00;28.33;;;;;24.91;72.15;100277.97;6253259;22;47277;-85
2023/06/13 06:40:08;;;;;;;;;33.33;31.33;;;;;25.10;72.14;100266.97;6257162;22;45088;-85
2023/06/13 06:42:33;;;;;;;;;29.00;28.33;;;;;25.18;71.93;100266.56;6254321;22;45368;-85
2023/06/13 06:45:05;;;;;;;;;30.67;28.67;;;;;25.28;70.45;100267.84;6256265;22;45398;-85
2023/06/13 06:47:30;;;;;;;;;32.67;30.00;;;;;25.34;69.78;100267.50;6254786;22;47511;-85
2023/06/13 06:49:56;;;;;;;;;29.00;28.00;;;;;25.49;69.84;100267.63;6256913;22;45383;-87
2023/06/13 06:52:25;;;;;;;;;30.33;29.33;;;;;25.56;68.36;100269.03;6260898;22;45461;-85
2023/06/13 06:54:57;;;;;;;;;31.00;28.00;;;;;25.60;67.81;100269.75;6231351;22;45482;-86
2023/06/13 06:57:23;;;;;;;;;34.67;32.67;;;;;25.55;66.76;100249.13;6257870;22;48261;-88
2023/06/13 06:59:54;;;;;;;;;34.00;32.00;;;;;25.62;67.13;100257.81;6263581;22;45362;-85
2023/06/13 07:12:56;;;;;;;;;34.67;32.00;;;;;25.72;65.44;100234.53;6147438;23;45112;-84
2023/06/13 07:15:37;;;;;;;;;35.33;32.67;;;;;25.80;64.67;100238.66;6143184;23;45511;-85
2023/06/13 07:18:46;;;;;;;;;;;;;;;;;;;;;
2023/06/13 08:00:55;;;;;;;;;20.67;20.00;;;;;26.92;56.08;100260.22;6203372;23;44673;-86
2023/06/13 08:03:57;;;;;;;;;23.67;21.67;;;;;27.17;56.15;100261.41;6085154;23;46640;-85
2023/06/13 08:14:07;;;;;;;;;;;;;;;;;;;;;
2023/06/13 08:17:41;;;;;;;;;;;;;;;;;;;;;
2023/06/13 08:24:14;;;;;;;;;;;;;;;;;;;;;
2023/06/13 08:37:24;;;;;;;;;23.00;21.33;;;;;27.89;50.78;100261.41;6136265;22;45949;-85
2023/06/13 08:40:39;;;;;;;;;22.67;21.67;;;;;27.90;50.12;100261.31;6088699;23;46733;-85
2023/06/13 08:47:35;;;;;;;;;21.00;20.00;;;;;28.02;50.81;100237.75;6050684;23;45474;-86
2023/06/13 09:03:55;;;;;;;;;21.00;20.33;;;;;28.52;50.22;100241.69;5882972;24;44831;-85
2023/06/13 09:07:00;;;;;;;;;20.33;20.33;;;;;28.64;50.14;100244.53;5852780;24;45438;-85
2023/06/13 09:17:17;;;;;;;;;;;;;;;;;;;;;
2023/06/13 09:40:47;;;;;;;;;20.67;19.00;;;;;28.57;42.19;100222.22;6225197;22;46868;-85
2023/06/13 09:43:22;;;;;;;;;18.00;18.00;;;;;28.60;43.23;100232.06;6111915;23;46609;-85
2023/06/13 10:15:25;;;;;;;;;20.67;18.67;;;;;28.91;39.88;100248.09;6251009;22;46034;-86
2023/06/13 10:18:48;;;;;;;;;18.67;18.67;;;;;28.93;39.36;100246.13;6235563;22;45336;-84
2023/06/13 10:21:28;;;;;;;;;18.00;18.00;;;;;28.76;38.99;100220.91;6174005;23;45372;-86
2023/06/13 10:38:15;;;;;;;;;;;;;;;;;;;;;
2023/06/13 11:48:52;;;;;;;;;17.67;17.67;;;;;29.51;35.43;100213.69;6240265;22;45544;-85
2023/06/13 14:39:32;;;;;;;;;17.33;16.67;;;;;43.80;16.11;100159.25;6257299;22;45005;-86
2023/06/13 14:42:27;;;;;;;;;18.33;17.33;;;;;43.82;16.37;100137.50;6258687;22;44735;-87
2023/06/13 16:01:57;;;;;;;;;;;;;;;;;;;;;
2023/06/13 16:08:20;;;;;;;;;12.67;12.33;;;;;48.85;11.06;100079.81;6260433;22;45290;-85
2023/06/13 16:10:59;;;;;;;;;;;;;;;;;;;;;
2023/06/13 16:17:14;;;;;;;;;16.33;16.33;;;;;49.35;11.47;100098.13;6192025;23;45292;-85
2023/06/13 16:19:45;;;;;;;;;12.67;12.67;;;;;48.71;11.28;100096.16;6169459;23;45317;-85
2023/06/13 16:22:11;;;;;;;;;15.33;15.33;;;;;48.71;11.34;100112.22;6194437;23;44758;-84
2023/06/13 16:25:42;;;;;;;;;;;;;;;;;;;;;
2023/06/13 16:32:07;;;;;;;;;17.00;16.00;;;;;48.93;12.22;100087.91;6133395;23;45441;-85
2023/06/13 16:34:42;;;;;;;;;15.67;15.67;;;;;49.50;11.00;100106.13;6133829;23;45362;-87
2023/06/13 16:37:29;;;;;;;;;14.33;14.33;;;;;49.78;13.02;100097.66;6131170;23;46790;-86
2023/06/13 16:39:57;;;;;;;;;16.00;13.67;;;;;50.15;12.30;100088.75;6162069;23;44848;-85
2023/06/13 16:42:27;;;;;;;;;10.00;10.00;;;;;49.98;12.23;100099.19;6162841;23;45364;-85
2023/06/13 16:45:11;;;;;;;;;10.67;10.67;;;;;49.88;10.85;100113.09;6167329;23;45486;-85
2023/06/13 16:47:47;;;;;;;;;;;;;;;;;;;;;
2023/06/13 16:50:16;;;;;;;;;16.00;16.00;;;;;47.12;12.09;100110.56;6192450;23;71669;-84
2023/06/13 16:52:41;;;;;;;;;30.33;29.33;;;;;47.03;13.03;100108.06;6192026;23;44729;-84
2023/06/13 16:55:45;;;;;;;;;13.67;13.67;;;;;47.83;12.15;100101.44;6192455;23;45308;-85
2023/06/13 16:58:19;;;;;;;;;11.00;11.00;;;;;47.80;12.20;100113.19;6192138;23;45355;-86
2023/06/13 17:01:21;;;;;;;;;19.67;18.67;;;;;47.98;13.31;100119.91;6192554;23;45381;-85
2023/06/13 17:03:46;;;;;;;;;14.33;14.33;;;;;48.26;13.19;100094.72;6192589;23;44747;-84
2023/06/13 17:09:52;;;;;;;;;12.00;12.00;;;;;47.67;12.43;100108.63;6192432;22;45358;-85
2023/06/13 17:12:18;;;;;;;;;13.00;13.00;;;;;47.48;11.98;100104.09;6192967;22;45288;-85
2023/06/13 17:18:05;;;;;;;;;15.67;15.67;;;;;45.50;12.59;100104.44;6194652;22;45388;-85
2023/06/13 17:20:30;;;;;;;;;13.00;13.00;;;;;45.59;13.67;100105.00;6193519;23;45467;-85
2023/06/13 17:23:04;;;;;;;;;14.00;14.00;;;;;45.03;13.51;100128.13;6194781;23;45268;-85
2023/06/13 17:25:33;;;;;;;;;12.33;12.33;;;;;43.57;13.88;100110.00;6193900;22;45744;-85
2023/06/13 17:27:58;;;;;;;;;14.00;14.00;;;;;41.84;14.73;100105.88;6194325;23;45349;-85
2023/06/13 17:30:24;;;;;;;;;13.33;13.33;;;;;40.13;15.78;100093.66;6195154;22;45652;-85
2023/06/13 17:32:53;;;;;;;;;15.33;13.33;;;;;38.69;16.76;100137.41;6195209;23;44908;-85
2023/06/13 17:35:20;;;;;;;;;15.00;15.00;;;;;37.02;18.04;100128.97;6193366;22;45387;-85
2023/06/13 17:37:46;;;;;;;;;14.33;14.33;;;;;35.82;19.48;100125.72;6194247;22;45303;-84
2023/06/13 17:40:15;;;;;;;;;15.00;15.00;;;;;35.07;19.62;100133.25;6192308;23;47299;-85
2023/06/13 17:42:41;;;;;;;;;18.00;18.00;;;;;34.42;20.13;100122.94;6193421;22;45956;-86
2023/06/13 17:45:08;;;;;;;;;14.67;14.67;;;;;34.07;20.96;100135.38;6224208;22;45183;-85
2023/06/13 17:47:42;;;;;;;;;15.67;15.00;;;;;33.81;21.26;100153.53;6223142;22;45441;-85
2023/06/13 17:50:07;;;;;;;;;13.33;13.33;;;;;33.42;21.79;100136.88;6222033;22;47140;-85
2023/06/13 17:52:36;;;;;;;;;15.00;15.00;;;;;33.21;21.95;100139.72;6226961;22;45429;-86
2023/06/13 17:55:05;;;;;;;;;17.67;17.33;;;;;32.72;21.84;100105.50;6222157;22;45296;-86
2023/06/13 17:57:34;;;;;;;;;16.00;16.00;;;;;32.78;22.33;100140.75;6222770;22;45309;-86
2023/06/13 18:00:00;;;;;;;;;14.33;14.00;;;;;32.56;22.35;100133.53;6221525;22;45644;-85
2023/06/13 18:02:26;;;;;;;;;18.33;17.33;;;;;32.35;22.90;100133.50;6221322;22;45346;-85
2023/06/13 18:04:51;;;;;;;;;14.00;12.33;;;;;32.15;22.80;100135.25;6221264;22;45398;-86
2023/06/13 18:07:18;;;;;;;;;15.00;15.00;;;;;32.08;23.28;100140.41;6222006;22;45270;-86
2023/06/13 18:09:43;;;;;;;;;13.67;12.67;;;;;31.88;23.88;100125.56;6221252;22;46150;-86
2023/06/13 18:12:10;;;;;;;;;12.00;12.00;;;;;31.92;23.21;100145.44;6221103;22;45455;-86
2023/06/13 18:14:36;;;;;;;;;14.67;14.67;;;;;31.83;23.23;100163.56;6220787;22;45252;-85
2023/06/13 18:17:02;;;;;;;;;16.33;16.00;;;;;31.58;23.49;100154.63;6223033;22;45352;-84
2023/06/13 18:19:28;;;;;;;;;14.00;13.00;;;;;31.39;23.95;100148.88;6221460;22;47307;-85
2023/06/13 18:21:56;;;;;;;;;15.00;15.00;;;;;31.48;23.75;100164.66;6247030;22;45471;-85
2023/06/13 18:24:55;;;;;;;;;11.67;11.67;;;;;31.41;24.23;100163.38;6222523;22;45213;-85
2023/06/13 18:27:21;;;;;;;;;16.00;15.00;;;;;31.15;24.30;100160.91;6247133;22;45354;-84
2023/06/13 18:29:46;;;;;;;;;15.33;13.67;;;;;31.03;24.45;100162.78;6221541;22;47256;-84
2023/06/13 18:32:12;;;;;;;;;14.00;13.33;;;;;30.92;24.10;100164.63;6221267;22;44801;-84
2023/06/13 18:34:37;;;;;;;;;16.33;16.33;;;;;30.77;24.13;100142.88;6222662;22;45446;-85
2023/06/13 18:37:04;;;;;;;;;14.33;14.33;;;;;30.71;24.37;100160.69;6222926;22;45787;-84
2023/06/13 18:39:29;;;;;;;;;12.00;12.00;;;;;30.68;24.51;100166.44;6225609;22;45369;-85
2023/06/13 18:41:58;;;;;;;;;13.33;13.00;;;;;30.63;24.53;100170.56;6249182;22;44688;-85
2023/06/13 18:44:23;;;;;;;;;15.33;15.33;;;;;30.44;24.92;100160.13;6221977;22;45237;-86
2023/06/13 18:46:48;;;;;;;;;13.33;13.33;;;;;30.35;25.32;100148.03;6223830;22;45303;-85
2023/06/13 18:49:14;;;;;;;;;16.00;13.67;;;;;30.35;25.42;100164.47;6223339;22;47148;-85
2023/06/13 18:51:39;;;;;;;;;12.00;12.00;;;;;30.26;25.71;100155.06;6226443;22;45467;-86
2023/06/13 18:54:05;;;;;;;;;14.33;14.33;;;;;30.20;25.68;100161.03;6226572;22;44834;-85
2023/06/13 18:56:32;;;;;;;;;16.00;14.67;;;;;30.16;25.62;100177.81;6224969;22;45377;-85
2023/06/13 18:58:59;;;;;;;;;13.00;11.00;;;;;30.06;25.79;100164.84;6227120;22;47037;-85
2023/06/13 19:01:25;;;;;;;;;15.33;13.67;;;;;30.01;25.83;100160.69;6225360;22;45294;-85
2023/06/13 19:03:51;;;;;;;;;16.00;15.67;;;;;30.05;25.91;100168.56;6227210;22;45269;-84
2023/06/13 19:06:17;;;;;;;;;12.33;12.33;;;;;29.97;26.04;100164.66;6226798;22;45510;-85
2023/06/13 19:08:44;;;;;;;;;16.67;15.00;;;;;29.96;25.93;100169.28;6251346;22;46080;-85
2023/06/13 19:11:16;;;;;;;;;13.67;12.33;;;;;29.94;26.18;100164.91;6225921;22;45420;-85
2023/06/13 19:13:42;;;;;;;;;15.00;13.67;;;;;29.89;26.33;100174.38;6226979;22;45212;-85
2023/06/13 19:16:08;;;;;;;;;12.67;12.00;;;;;29.81;26.32;100168.56;6227441;22;45558;-85
2023/06/13 19:18:33;;;;;;;;;15.00;14.00;;;;;29.87;26.65;100180.94;6227106;22;45698;-85
2023/06/13 19:20:59;;;;;;;;;13.67;11.00;;;;;29.80;26.37;100174.19;6225518;22;45258;-85
2023/06/13 19:23:24;;;;;;;;;15.00;15.00;;;;;29.75;26.69;100173.63;6251093;22;45339;-86
2023/06/13 19:25:50;;;;;;;;;13.00;13.00;;;;;29.73;27.03;100183.84;6227713;22;45408;-85
2023/06/13 19:28:16;;;;;;;;;15.33;15.33;;;;;29.57;26.82;100171.28;6225440;22;46877;-85
2023/06/13 19:30:42;;;;;;;;;16.33;15.33;;;;;29.57;27.08;100190.44;6228128;22;45257;-86
2023/06/13 19:33:07;;;;;;;;;15.00;15.00;;;;;29.46;27.19;100182.13;6228611;22;45403;-84
2023/06/13 19:35:34;;;;;;;;;17.67;16.67;;;;;29.47;26.95;100189.34;6230082;22;45286;-85
2023/06/13 19:38:03;;;;;;;;;17.67;15.00;;;;;29.41;27.33;100181.59;6224224;22;47807;-85
2023/06/13 19:40:32;;;;;;;;;15.67;15.00;;;;;29.37;27.35;100185.53;6223841;22;45302;-85
2023/06/13 19:42:57;;;;;;;;;16.00;15.67;;;;;29.24;27.64;100189.19;6224506;22;45366;-85
2023/06/13 19:45:22;;;;;;;;;14.67;14.33;;;;;29.17;27.86;100193.38;6222302;22;44852;-84
2023/06/13 19:47:48;;;;;;;;;12.67;12.33;;;;;29.14;27.64;100196.31;6247920;22;48056;-84
2023/06/13 19:50:14;;;;;;;;;17.33;15.67;;;;;29.07;27.83;100204.06;6223005;22;45389;-85
2023/06/13 19:52:40;;;;;;;;;15.00;14.00;;;;;28.97;27.67;100197.50;6222027;22;45634;-85
2023/06/13 19:55:12;;;;;;;;;14.00;14.00;;;;;28.99;27.41;100200.16;6222885;22;45546;-85
2023/06/13 19:57:41;;;;;;;;;14.33;14.00;;;;;28.88;27.98;100210.00;6221715;22;48038;-85
2023/06/13 20:00:32;;;;;;;;;14.67;14.00;;;;;28.89;27.38;100211.75;6245402;22;45362;-85